createdAt,value
2023-04-25T20:26:43.302Z,1.52
2023-04-25T20:28:45.166Z,1.50
2023-04-25T20:30:46.745Z,1.10
2023-04-25T20:32:48.322Z,1.33
2023-04-25T20:34:50.328Z,1.80
2023-04-25T20:36:52.856Z,1.25
2023-04-25T20:38:54.818Z,1.20
2023-04-25T20:40:56.724Z,1.20
2023-04-25T20:42:58.454Z,0.50
2023-04-25T20:45:00.803Z,0.77
2023-04-25T20:47:02.351Z,1.70
2023-04-25T20:49:05.195Z,2.20
2023-04-25T20:51:07.305Z,1.02
2023-04-25T20:53:09.129Z,1.60
2023-04-25T20:55:11.906Z,0.65
2023-04-25T20:57:17.341Z,1.23
2023-04-25T20:59:18.883Z,1.13
2023-04-25T21:01:20.809Z,1.60
2023-04-25T21:03:22.760Z,5.53
2023-04-25T21:05:24.665Z,8.50
2023-04-25T21:07:26.740Z,8.07
2023-04-25T21:09:28.309Z,7.75
2023-04-25T21:11:30.275Z,6.28
2023-04-25T21:13:31.936Z,5.95
2023-04-25T21:15:33.630Z,5.60
2023-04-25T21:17:35.461Z,3.63
2023-04-25T21:19:37.152Z,4.22
2023-04-25T21:21:39.790Z,5.28
2023-04-25T21:23:42.649Z,3.25
2023-04-25T21:25:44.345Z,2.65
2023-04-25T21:27:49.766Z,2.15
2023-04-25T21:29:51.319Z,2.30
2023-04-25T21:31:53.393Z,1.92
2023-04-25T21:33:55.037Z,2.00
2023-04-25T21:35:56.720Z,3.08
2023-04-25T21:37:58.602Z,2.03
2023-04-25T21:40:00.379Z,1.83
2023-04-25T21:42:03.330Z,2.55
2023-04-25T21:44:07.706Z,2.70
2023-04-25T21:48:14.314Z,1.45
2023-04-25T21:50:17.698Z,2.40
2023-04-25T21:52:19.420Z,2.88
2023-04-25T21:54:21.025Z,3.15
2023-04-25T21:56:23.075Z,3.50
2023-04-25T21:58:24.838Z,3.28
2023-04-25T22:00:28.549Z,2.97
2023-04-25T22:02:31.188Z,3.15
2023-04-25T22:04:32.916Z,4.00
2023-04-25T22:06:34.681Z,5.00
2023-04-25T22:08:36.444Z,3.95
2023-04-25T22:10:39.846Z,4.03
2023-04-25T22:12:41.512Z,3.85
2023-04-25T22:14:44.707Z,4.10
2023-04-25T22:16:46.869Z,3.88
2023-04-25T22:18:49.966Z,3.85
2023-04-25T22:20:51.894Z,3.55
2023-04-25T22:22:54.593Z,3.72
2023-04-25T22:24:56.433Z,3.67
2023-04-25T22:27:00.498Z,3.60
2023-04-25T22:29:02.631Z,3.45
2023-04-25T22:31:04.775Z,3.15
2023-04-25T22:33:06.544Z,3.72
2023-04-25T22:35:09.259Z,2.88
2023-04-25T22:37:11.265Z,3.50
2023-04-25T22:39:15.147Z,2.97
2023-04-25T22:41:16.811Z,2.38
2023-04-25T22:43:18.885Z,2.50
2023-04-25T22:45:20.493Z,2.72
2023-04-25T22:47:22.936Z,2.38
2023-04-25T22:49:24.771Z,1.92
2023-04-25T22:51:26.306Z,2.05
2023-04-25T22:53:27.951Z,2.10
2023-04-25T22:55:29.632Z,2.92
2023-04-25T22:57:37.501Z,3.08
2023-04-25T22:59:39.018Z,2.58
2023-04-25T23:01:40.627Z,2.20
2023-04-25T23:03:43.797Z,1.52
2023-04-25T23:05:47.972Z,2.05
2023-04-25T23:07:49.826Z,0.90
2023-04-25T23:09:52.077Z,1.52
2023-04-25T23:11:53.705Z,1.92
2023-04-25T23:13:55.286Z,1.80
2023-04-25T23:15:57.137Z,1.10
2023-04-25T23:17:58.906Z,1.25
2023-04-25T23:20:00.878Z,1.58
2023-04-25T23:22:02.474Z,1.95
2023-04-25T23:24:06.169Z,1.58
2023-04-25T23:26:08.739Z,1.88
2023-04-25T23:28:10.279Z,1.05
2023-04-25T23:30:12.379Z,1.02
2023-04-25T23:32:17.017Z,1.23
2023-04-25T23:34:18.666Z,1.58
2023-04-25T23:36:21.312Z,1.50
2023-04-25T23:38:23.219Z,1.90
2023-04-25T23:40:24.980Z,1.52
2023-04-25T23:42:26.625Z,1.23
2023-04-25T23:44:28.634Z,0.85
2023-04-25T23:46:31.062Z,1.48
2023-04-25T23:48:32.711Z,0.90
2023-04-25T23:50:34.259Z,1.08
2023-04-25T23:52:35.997Z,1.60
2023-04-25T23:54:41.217Z,0.50
2023-04-25T23:56:42.878Z,0.70
2023-04-25T23:58:44.572Z,0.85
